Moscow, Russia

4:21 PM MSK on February 06, 2016 (GMT +0300)
Sheremetyevo | | Change Station
CLOSE
Current Station
Airport
Location: Moscow Sheremetyevo,
Elevation: 620 ft
Nearby Weather Stations

Elev 620 ft 55.97 °N, 37.41 °E | Updated 21 minutes ago

Light Snow Showers
Light Showers Snow
28 °F
Feels Like 19 °F
N
11
Wind Variable Wind from WNW

Today
High -- | Low -- °F
--% Chance of Precip.
Yesterday
High -- | Low -- °F
Precip. -- in
Pressure 30.04 in
Visibility 6.2 miles
Clouds Mostly Cloudy 2100 ft
Windchill 19 °F
Dew Point 23 °F
Humidity 80%
Rainfall 0.00 in
Snow Depth Not available.
8:15 AM 5:12 PM
Waning Crescent, 5% visible
METAR UUEE 061300Z 29005MPS 9999 -SHSN BKN021CB M02/M05 Q1017 R24R/520237 R24L/520245 NOSIG
Pressure 30.04 in
Visibility 6.2 miles
Clouds Mostly Cloudy 2100 ft
Windchill 19 °F
Dew Point 23 °F
Humidity 80%
Rainfall 0.00 in
Snow Depth Not available.
8:15 AM 5:12 PM
Waning Crescent, 5% visible
METAR UUEE 061300Z 29005MPS 9999 -SHSN BKN021CB M02/M05 Q1017 R24R/520237 R24L/520245 NOSIG

10-Day Weather Forecast

Almanac

Astronomy

Feb. 06, 2016 Rise Set
Actual Time
Civil Twilight
Nautical Twilight
Astronomical Twilight
Moon
Length of Visible Light
Length of Day
Tomorrow will be .
, % of the Moon is Illuminated

Today's Extremes

Country Highs Country Lows

Community

WunderPhotos

Upload Photos

1,890,965 photos uploaded!

WunderBlog® & News

Nearby

Air Quality

  Air Quality AQ Index Pollutant
Not available.

Snow Depth

Station Depth Elevation

Earthquake Activity

City Distance Mag. Time & Date
Minimum magnitude displayed is 2.5.

Coastal Water Temperatures

Place Temperature

Stations

Nearby Weather Stations

Station Location Temp. Windchill Dew Point Humidity Wind Precip. Elev Updated Type